createdAt,value
2023-02-18T00:00:18.268Z,101176.34
2023-02-18T00:02:45.625Z,101175.69
2023-02-18T00:05:13.188Z,101191.09
2023-02-18T00:07:40.496Z,101188.91
2023-02-18T00:10:10.082Z,101190.41
2023-02-18T00:12:36.488Z,101188.59
2023-02-18T00:15:02.889Z,101182.88
2023-02-18T00:17:29.708Z,101181.22
2023-02-18T00:19:57.045Z,101182.72
2023-02-18T00:22:24.242Z,101174.69
2023-02-18T00:24:50.685Z,101179.88
2023-02-18T00:27:17.311Z,101175.34
2023-02-18T00:29:43.671Z,101178.72
2023-02-18T00:32:10.134Z,101171.66
2023-02-18T00:34:36.459Z,101185.06
2023-02-18T00:37:02.816Z,101187.44
2023-02-18T00:39:29.189Z,101186.41
2023-02-18T00:41:55.572Z,101183.56
2023-02-18T00:44:21.910Z,101172.50
2023-02-18T00:46:49.646Z,101178.19
2023-02-18T00:49:16.610Z,101177.38
2023-02-18T00:51:44.019Z,101175.88
2023-02-18T00:54:10.349Z,101185.06
2023-02-18T00:56:36.773Z,101192.78
2023-02-18T00:59:03.327Z,101197.94
2023-02-18T01:01:29.669Z,101206.34
2023-02-18T01:03:56.090Z,101195.28
2023-02-18T01:06:22.497Z,101189.75
2023-02-18T01:08:49.175Z,101188.44
2023-02-18T01:11:15.848Z,101182.75
2023-02-18T01:13:42.290Z,101184.22
2023-02-18T01:16:09.704Z,101181.38
2023-02-18T01:18:36.586Z,101182.06
2023-02-18T01:21:05.028Z,101177.84
2023-02-18T01:23:31.348Z,101178.53
2023-02-18T01:25:58.292Z,101179.03
2023-02-18T01:28:25.754Z,101172.50
2023-02-18T01:30:53.068Z,101167.81
2023-02-18T01:33:20.377Z,101169.13
2023-02-18T01:35:46.990Z,101161.81
2023-02-18T01:38:13.371Z,101153.59
2023-02-18T01:40:51.453Z,101171.50
2023-02-18T01:43:19.107Z,101164.97
2023-02-18T01:46:05.498Z,101155.75
2023-02-18T01:48:39.080Z,101144.53
2023-02-18T01:51:13.187Z,101151.25
2023-02-18T01:53:52.893Z,101147.88
2023-02-18T01:56:24.635Z,101141.69
2023-02-18T01:58:53.397Z,101139.53
2023-02-18T02:01:19.869Z,101144.88
2023-02-18T02:03:46.204Z,101147.22
2023-02-18T02:06:18.639Z,101150.25
2023-02-18T02:08:45.839Z,101148.56
2023-02-18T02:11:41.613Z,101141.38
2023-02-18T02:14:18.422Z,101135.66
2023-02-18T02:17:11.490Z,101130.81
2023-02-18T02:20:24.352Z,101128.81
2023-02-18T02:23:11.420Z,101131.28
2023-02-18T02:26:15.460Z,101126.47
2023-02-18T02:29:04.668Z,101129.66
2023-02-18T02:31:47.609Z,101135.16
2023-02-18T02:34:50.616Z,101129.66
2023-02-18T02:37:41.772Z,101114.59
2023-02-18T02:40:34.111Z,101113.41
2023-02-18T02:43:16.396Z,101100.84
2023-02-18T02:45:59.615Z,101087.63
2023-02-18T02:48:51.859Z,101089.13
2023-02-18T02:51:28.580Z,101094.16
2023-02-18T02:53:54.897Z,101104.22
2023-02-18T02:56:23.685Z,101098.66
2023-02-18T02:59:04.563Z,101104.69
2023-02-18T03:02:08.124Z,101098.16
2023-02-18T03:05:11.042Z,101101.84
2023-02-18T03:07:59.024Z,101102.22
2023-02-18T03:10:28.429Z,101102.03
2023-02-18T03:13:23.479Z,101109.22
2023-02-18T03:16:06.669Z,101100.69
2023-02-18T03:18:43.932Z,101100.34
2023-02-18T03:21:21.113Z,101093.00
2023-02-18T03:24:00.130Z,101084.28
2023-02-18T03:26:27.311Z,101085.44
2023-02-18T03:28:55.512Z,101081.63
2023-02-18T03:31:25.966Z,101085.44
2023-02-18T03:33:55.457Z,101089.47
2023-02-18T03:36:22.068Z,101087.78
2023-02-18T03:39:00.009Z,101098.84
2023-02-18T03:41:26.353Z,101095.34
2023-02-18T03:43:55.133Z,101091.31
2023-02-18T03:46:21.766Z,101097.16
2023-02-18T03:48:48.096Z,101096.66
2023-02-18T03:51:14.513Z,101087.16
2023-02-18T03:53:40.874Z,101084.63
2023-02-18T03:56:07.687Z,101089.47
2023-02-18T03:58:34.237Z,101081.75
2023-02-18T04:01:01.473Z,101086.13
2023-02-18T04:03:27.899Z,101078.91
2023-02-18T04:05:54.238Z,101076.06
2023-02-18T04:08:20.588Z,101074.25
2023-02-18T04:10:46.952Z,101073.56
2023-02-18T04:13:13.315Z,101071.22
2023-02-18T04:15:39.696Z,101082.59
2023-02-18T04:18:06.025Z,101074.41
2023-02-18T04:20:32.428Z,101074.25
2023-02-18T04:22:58.826Z,101063.53
2023-02-18T04:25:25.138Z,101056.16
2023-02-18T04:27:51.562Z,101065.38
2023-02-18T04:30:19.143Z,101061.38
2023-02-18T04:32:45.618Z,101073.06
2023-02-18T04:35:12.010Z,101066.72
2023-02-18T04:37:38.327Z,101066.22
2023-02-18T04:40:05.209Z,101068.41
2023-02-18T04:42:31.593Z,101065.88
2023-02-18T04:44:57.995Z,101064.22
2023-02-18T04:47:24.349Z,101067.56
2023-02-18T04:49:50.834Z,101066.88
2023-02-18T04:52:17.354Z,101065.19
2023-02-18T04:54:43.703Z,101057.84
2023-02-18T04:57:10.028Z,101058.69
2023-02-18T04:59:36.594Z,101056.84
2023-02-18T05:02:03.151Z,101062.53
2023-02-18T05:04:29.605Z,101055.00
2023-02-18T05:06:56.033Z,101044.78
2023-02-18T05:09:22.851Z,101046.13
2023-02-18T05:11:49.384Z,101040.75
2023-02-18T05:14:16.046Z,101042.56
2023-02-18T05:16:42.448Z,101037.91
2023-02-18T05:19:09.808Z,101039.56
2023-02-18T05:21:36.209Z,101039.56
2023-02-18T05:24:02.669Z,101038.22
2023-02-18T05:26:29.004Z,101030.19
2023-02-18T05:28:55.392Z,101020.38
2023-02-18T05:31:21.813Z,101011.13
2023-02-18T05:33:48.236Z,101010.16
2023-02-18T05:36:14.565Z,101016.19
2023-02-18T05:38:40.902Z,101010.16
2023-02-18T05:41:07.537Z,101006.81
2023-02-18T05:43:56.536Z,101022.53
2023-02-18T05:46:23.787Z,101016.38
2023-02-18T05:48:50.162Z,101006.16
2023-02-18T05:51:16.659Z,100999.97
2023-02-18T05:53:43.182Z,101004.16
2023-02-18T05:56:10.013Z,100995.28
2023-02-18T05:58:36.534Z,100996.13
2023-02-18T06:01:03.612Z,101003.47
2023-02-18T06:03:29.973Z,100995.13
2023-02-18T06:05:56.384Z,100981.88
2023-02-18T06:08:22.798Z,100975.03
2023-02-18T06:10:49.204Z,100975.69
2023-02-18T06:13:15.530Z,100973.53
2023-02-18T06:15:41.874Z,100980.72
2023-02-18T06:18:08.935Z,100983.91
2023-02-18T06:20:35.325Z,100978.22
2023-02-18T06:23:01.744Z,100973.19
2023-02-18T06:25:28.129Z,100987.59
2023-02-18T06:27:54.456Z,100987.91
2023-02-18T06:30:21.996Z,100989.56
2023-02-18T06:32:49.367Z,100979.53
2023-02-18T06:35:15.839Z,100985.06
2023-02-18T06:37:42.221Z,100991.06
2023-02-18T06:40:09.478Z,100994.41
2023-02-18T06:42:35.825Z,101000.09
2023-02-18T06:45:02.190Z,101000.09
2023-02-18T06:47:28.550Z,101004.63
2023-02-18T06:49:54.910Z,100998.59
2023-02-18T06:52:21.222Z,101006.81
2023-02-18T06:54:47.541Z,100993.06
2023-02-18T06:57:13.986Z,100979.88
2023-02-18T06:59:40.313Z,100989.59
2023-02-18T07:02:06.767Z,100984.22
2023-02-18T07:04:33.144Z,100983.06
2023-02-18T07:06:59.470Z,100975.53
2023-02-18T07:09:25.784Z,100977.53
2023-02-18T07:11:52.159Z,100975.84
2023-02-18T07:14:18.520Z,100969.34
2023-02-18T07:16:44.908Z,100971.19
2023-02-18T07:19:11.341Z,100954.66
2023-02-18T07:21:37.702Z,100962.16
2023-02-18T07:24:04.286Z,100968.50
2023-02-18T07:26:30.600Z,100966.50
2023-02-18T07:28:56.951Z,100964.00
2023-02-18T07:31:23.320Z,100975.84
2023-02-18T07:33:49.672Z,100959.50
2023-02-18T07:36:16.037Z,100986.25
2023-02-18T07:38:43.094Z,100968.00
2023-02-18T07:41:18.762Z,100983.06
2023-02-18T07:43:45.255Z,100984.22
2023-02-18T07:46:12.050Z,100970.50
2023-02-18T07:48:38.637Z,100966.00
2023-02-18T07:51:09.535Z,100967.00
2023-02-18T07:53:36.361Z,100976.50
2023-02-18T07:56:03.072Z,100973.50
2023-02-18T07:58:31.960Z,100950.78
2023-02-18T08:00:58.390Z,100956.59
2023-02-18T08:03:28.609Z,100967.16
2023-02-18T08:05:55.501Z,100955.28
2023-02-18T08:08:24.442Z,100939.53
2023-02-18T08:10:52.276Z,100938.69
2023-02-18T08:13:18.968Z,100941.22
2023-02-18T08:15:45.409Z,100950.06
2023-02-18T08:18:20.597Z,100955.44
2023-02-18T08:20:47.471Z,100963.31
2023-02-18T08:23:14.805Z,100939.69
2023-02-18T08:25:45.470Z,100962.94
2023-02-18T08:28:11.850Z,100957.75
2023-02-18T08:30:38.252Z,100968.78
2023-02-18T08:33:04.705Z,100953.72
2023-02-18T08:35:31.118Z,100962.94
2023-02-18T08:37:58.444Z,100971.81
2023-02-18T08:40:25.138Z,100968.28
2023-02-18T08:42:51.483Z,100975.63
2023-02-18T08:45:18.588Z,100979.19
2023-02-18T08:48:19.345Z,100980.31
2023-02-18T08:50:31.258Z,100985.69
2023-02-18T08:53:00.288Z,100987.19
2023-02-18T08:55:26.830Z,100985.69
2023-02-18T08:57:53.220Z,100979.66
2023-02-18T09:00:19.688Z,100974.78
2023-02-18T09:02:47.398Z,100981.63
2023-02-18T09:05:13.716Z,100983.28
2023-02-18T09:07:40.289Z,100978.94
2023-02-18T09:10:08.227Z,100966.03
2023-02-18T09:12:35.143Z,100979.44
2023-02-18T09:15:01.801Z,100979.28
2023-02-18T09:17:28.637Z,100984.25
2023-02-18T09:19:55.122Z,100975.41
2023-02-18T09:22:21.491Z,100980.22
2023-02-18T09:24:47.843Z,100970.22
2023-02-18T09:27:14.267Z,100994.69
2023-02-18T09:29:41.647Z,100988.16
2023-02-18T09:32:08.905Z,100978.44
2023-02-18T09:34:36.424Z,100997.03
2023-02-18T09:37:02.970Z,100980.06
2023-02-18T09:39:29.322Z,100964.31
2023-02-18T09:42:07.731Z,100963.00
2023-02-18T09:44:38.875Z,100971.41
2023-02-18T09:47:10.526Z,100976.94
2023-02-18T09:49:39.609Z,100978.44
2023-02-18T09:52:20.778Z,100984.63
2023-02-18T09:54:48.594Z,100989.16
2023-02-18T09:57:29.996Z,100979.28
2023-02-18T10:00:12.422Z,100990.16
2023-02-18T10:02:42.091Z,100997.03
2023-02-18T10:05:14.139Z,100980.44
2023-02-18T10:07:41.046Z,100985.44
2023-02-18T10:10:38.390Z,100986.75
2023-02-18T10:13:10.357Z,100983.75
2023-02-18T10:15:37.410Z,100979.41
2023-02-18T10:18:05.961Z,100963.66
2023-02-18T10:20:33.132Z,100966.00
2023-02-18T10:23:01.392Z,100962.97
2023-02-18T10:25:28.539Z,100956.09
2023-02-18T10:27:54.933Z,100961.59
2023-02-18T10:30:31.194Z,100948.91
2023-02-18T10:33:08.048Z,100959.91
2023-02-18T10:35:39.724Z,100963.97
2023-02-18T10:38:30.693Z,100970.19
2023-02-18T10:41:22.903Z,100964.00
2023-02-18T10:44:04.406Z,100962.84
2023-02-18T10:46:59.212Z,100959.34
2023-02-18T10:49:52.056Z,100959.34
2023-02-18T10:52:19.444Z,100974.16
2023-02-18T10:55:09.236Z,100967.00
2023-02-18T10:57:45.736Z,100962.47
2023-02-18T11:00:19.460Z,100960.13
2023-02-18T11:02:46.246Z,100959.13
2023-02-18T11:05:19.766Z,100945.56
2023-02-18T11:07:48.959Z,100942.06
2023-02-18T11:10:18.975Z,100933.34
2023-02-18T11:12:51.233Z,100948.25
2023-02-18T11:15:24.317Z,100943.44
2023-02-18T11:17:54.248Z,100933.00
2023-02-18T11:20:32.258Z,100926.97
2023-02-18T11:23:06.097Z,100935.19
2023-02-18T11:25:38.121Z,100930.44
2023-02-18T11:28:08.610Z,100918.84
2023-02-18T11:30:39.958Z,100918.69
2023-02-18T11:33:20.626Z,100918.19
2023-02-18T11:35:51.854Z,100911.34
2023-02-18T11:38:24.996Z,100914.56
2023-02-18T11:41:03.100Z,100913.19
2023-02-18T11:43:30.852Z,100912.00
2023-02-18T11:46:15.311Z,100895.47
2023-02-18T11:48:41.852Z,100893.47
2023-02-18T11:51:16.801Z,100892.47
2023-02-18T11:54:01.621Z,100885.94
2023-02-18T11:56:34.168Z,100880.19
2023-02-18T11:59:02.418Z,100882.84
2023-02-18T12:01:38.233Z,100879.38
2023-02-18T12:04:19.344Z,100874.31
2023-02-18T12:06:50.624Z,100868.97
2023-02-18T12:09:25.246Z,100863.59
2023-02-18T12:11:58.103Z,100861.94
2023-02-18T12:14:25.599Z,100847.69
2023-02-18T12:17:11.914Z,100844.66
2023-02-18T12:19:38.439Z,100831.53
2023-02-18T12:22:17.393Z,100855.97
2023-02-18T12:25:01.183Z,100859.97
2023-02-18T12:27:40.541Z,100842.53
2023-02-18T12:30:29.149Z,100839.75
2023-02-18T12:33:41.952Z,100847.31
2023-02-18T12:36:22.547Z,100857.00
2023-02-18T12:39:23.735Z,100847.75
2023-02-18T12:41:57.794Z,100851.44
2023-02-18T12:44:32.264Z,100859.13
2023-02-18T12:47:10.367Z,100864.84
2023-02-18T12:50:03.391Z,100868.28
2023-02-18T12:52:29.649Z,100877.25
2023-02-18T12:55:21.805Z,100870.81
2023-02-18T12:58:09.718Z,100860.03
2023-02-18T13:00:48.592Z,100860.72
2023-02-18T13:03:24.170Z,100871.28
2023-02-18T13:06:01.127Z,100870.88
2023-02-18T13:08:54.314Z,100875.81
2023-02-18T13:11:30.531Z,100876.28
2023-02-18T13:14:04.485Z,100887.66
2023-02-18T13:16:31.612Z,100878.56
2023-02-18T13:19:00.981Z,100884.44
2023-02-18T13:21:27.926Z,100885.31
2023-02-18T13:24:10.499Z,100888.50
2023-02-18T13:26:37.452Z,100875.16
2023-02-18T13:29:32.997Z,100863.41
2023-02-18T13:32:23.794Z,100863.75
2023-02-18T13:35:02.366Z,100859.19
2023-02-18T13:37:51.307Z,100849.91
2023-02-18T13:40:28.536Z,100863.69
2023-02-18T13:42:54.925Z,100859.63
2023-02-18T13:45:32.556Z,100857.53
2023-02-18T13:47:59.868Z,100861.63
2023-02-18T13:50:32.341Z,100855.72
2023-02-18T13:53:07.960Z,100852.78
2023-02-18T13:55:46.545Z,100859.31
2023-02-18T13:58:25.879Z,100865.78
2023-02-18T14:00:56.387Z,100868.69
2023-02-18T14:03:33.286Z,100873.81
2023-02-18T14:05:59.874Z,100865.16
2023-02-18T14:08:45.424Z,100875.06
2023-02-18T14:11:11.692Z,100867.88
2023-02-18T14:13:43.100Z,100866.94
2023-02-18T14:16:11.073Z,100862.06
2023-02-18T14:18:58.964Z,100863.47
2023-02-18T14:21:42.205Z,100874.78
2023-02-18T14:24:10.905Z,100861.44
2023-02-18T14:26:43.086Z,100856.72
2023-02-18T14:29:34.582Z,100859.38
2023-02-18T14:32:04.885Z,100857.03
2023-02-18T14:34:40.872Z,100854.00
2023-02-18T14:37:13.456Z,100866.19
2023-02-18T14:40:10.418Z,100856.47
2023-02-18T14:43:01.317Z,100850.66
2023-02-18T14:45:58.159Z,100840.94
2023-02-18T14:48:41.803Z,100849.28
2023-02-18T14:51:08.581Z,100848.44
2023-02-18T14:53:43.522Z,100856.13
2023-02-18T14:56:13.454Z,100846.09
2023-02-18T14:58:42.873Z,100851.28
2023-02-18T15:01:28.870Z,100851.97
2023-02-18T15:03:56.597Z,100850.31
2023-02-18T15:06:25.829Z,100845.75
2023-02-18T15:08:52.223Z,100853.44
2023-02-18T15:11:23.955Z,100847.69
2023-02-18T15:13:50.790Z,100841.16
2023-02-18T15:16:34.018Z,100839.16
2023-02-18T15:19:03.123Z,100839.16
2023-02-18T15:21:32.491Z,100836.66
2023-02-18T15:24:24.319Z,100840.31
2023-02-18T15:26:51.889Z,100830.41
2023-02-18T15:29:22.615Z,100849.31
2023-02-18T15:31:49.425Z,100841.63
2023-02-18T15:34:45.645Z,100842.50
2023-02-18T15:37:14.130Z,100840.81
2023-02-18T15:39:42.149Z,100841.66
2023-02-18T15:42:17.024Z,100852.94
2023-02-18T15:44:52.572Z,100830.00
2023-02-18T15:47:19.493Z,100840.19
2023-02-18T15:49:47.790Z,100843.88
2023-02-18T15:52:14.285Z,100837.88
2023-02-18T15:54:41.540Z,100836.22
2023-02-18T15:57:13.392Z,100843.56
2023-02-18T16:00:03.474Z,100847.81
2023-02-18T16:02:30.783Z,100849.66
2023-02-18T16:05:05.003Z,100844.66
2023-02-18T16:07:37.132Z,100848.69
2023-02-18T16:10:08.954Z,100836.78
2023-02-18T16:12:37.678Z,100842.03
2023-02-18T16:15:04.340Z,100842.03
2023-02-18T16:17:30.745Z,100844.16
2023-02-18T16:20:05.302Z,100843.19
2023-02-18T16:22:32.230Z,100847.22
2023-02-18T16:25:01.719Z,100850.25
2023-02-18T16:27:32.542Z,100853.94
2023-02-18T16:30:29.358Z,100863.47
2023-02-18T16:32:57.798Z,100852.59
2023-02-18T16:35:27.767Z,100850.41
2023-02-18T16:37:57.472Z,100851.63
2023-02-18T16:40:30.471Z,100863.47
2023-02-18T16:42:59.617Z,100859.31
2023-02-18T16:45:49.216Z,100863.69
2023-02-18T16:48:31.636Z,100862.34
2023-02-18T16:51:01.281Z,100870.38
2023-02-18T16:53:27.655Z,100870.94
2023-02-18T16:55:53.992Z,100857.88
2023-02-18T16:58:20.411Z,100869.25
2023-02-18T17:00:47.211Z,100863.91
2023-02-18T17:03:13.623Z,100880.63
2023-02-18T17:05:41.007Z,100887.00
2023-02-18T17:08:25.037Z,100886.81
2023-02-18T17:10:55.213Z,100878.63
2023-02-18T17:13:27.607Z,100883.81
2023-02-18T17:15:55.792Z,100883.16
2023-02-18T17:18:23.739Z,100879.50
2023-02-18T17:20:51.068Z,100884.84
2023-02-18T17:23:21.198Z,100882.00
2023-02-18T17:25:48.865Z,100884.53
2023-02-18T17:28:19.244Z,100883.34
2023-02-18T17:30:56.530Z,100879.34
2023-02-18T17:33:23.402Z,100895.06
2023-02-18T17:35:49.796Z,100892.88
2023-02-18T17:38:17.814Z,100894.38
2023-02-18T17:40:45.264Z,100888.53
2023-02-18T17:43:16.600Z,100902.41
2023-02-18T17:45:49.756Z,100904.94
2023-02-18T17:48:16.184Z,100897.25
2023-02-18T17:50:42.610Z,100904.28
2023-02-18T17:53:11.498Z,100901.44
2023-02-18T17:55:38.368Z,100911.47
2023-02-18T17:58:04.715Z,100917.31
2023-02-18T18:00:35.019Z,100920.31
2023-02-18T18:03:02.194Z,100923.66
2023-02-18T18:05:36.563Z,100923.66
2023-02-18T18:08:04.253Z,100920.16
2023-02-18T18:10:31.955Z,100927.50
2023-02-18T18:12:59.833Z,100927.72
2023-02-18T18:15:31.964Z,100934.06
2023-02-18T18:17:58.488Z,100936.56
2023-02-18T18:20:26.413Z,100937.88
2023-02-18T18:22:54.634Z,100943.25
2023-02-18T18:25:30.289Z,100946.59
2023-02-18T18:27:57.197Z,100938.56
2023-02-18T18:30:29.107Z,100942.41
2023-02-18T18:32:55.781Z,100944.59
2023-02-18T18:35:33.936Z,100944.06
2023-02-18T18:38:00.899Z,100950.59
2023-02-18T18:40:29.457Z,100938.38
2023-02-18T18:42:57.390Z,100946.44
2023-02-18T18:45:26.572Z,100944.25
2023-02-18T18:47:53.189Z,100949.09
2023-02-18T18:50:20.446Z,100944.25
2023-02-18T18:52:48.000Z,100949.44
2023-02-18T18:55:24.609Z,100944.91
2023-02-18T18:57:51.321Z,100943.56
2023-02-18T19:00:19.547Z,100942.06
2023-02-18T19:02:46.172Z,100941.22
2023-02-18T19:05:21.510Z,100942.72
2023-02-18T19:07:48.063Z,100941.22
2023-02-18T19:10:15.120Z,100941.22
2023-02-18T19:12:41.465Z,100950.09
2023-02-18T19:15:12.114Z,100946.75
2023-02-18T19:17:38.453Z,100931.53
2023-02-18T19:20:05.316Z,100945.41
2023-02-18T19:22:31.642Z,100947.25
2023-02-18T19:24:58.027Z,100945.25
2023-02-18T19:27:24.565Z,100952.44
2023-02-18T19:29:54.112Z,100956.63
2023-02-18T19:32:20.424Z,100956.63
2023-02-18T19:34:46.801Z,100944.75
2023-02-18T19:37:13.148Z,100943.06
2023-02-18T19:39:39.469Z,100946.25
2023-02-18T19:42:05.809Z,100943.41
2023-02-18T19:44:34.052Z,100940.22
2023-02-18T19:47:01.005Z,100941.38
2023-02-18T19:49:27.743Z,100943.41
2023-02-18T19:51:54.213Z,100933.19
2023-02-18T19:54:20.634Z,100938.88
2023-02-18T19:56:46.982Z,100929.84
2023-02-18T19:59:13.299Z,100930.88
2023-02-18T20:01:39.756Z,100932.03
2023-02-18T20:04:06.384Z,100927.50
2023-02-18T20:06:32.736Z,100932.03
2023-02-18T20:08:59.079Z,100927.50
2023-02-18T20:11:25.461Z,100921.84
2023-02-18T20:13:51.831Z,100928.69
2023-02-18T20:16:18.299Z,100926.69
2023-02-18T20:18:44.687Z,100929.19
2023-02-18T20:21:12.049Z,100920.47
2023-02-18T20:23:38.717Z,100922.50
2023-02-18T20:26:12.720Z,100927.00
2023-02-18T20:28:39.100Z,100927.00
2023-02-18T20:31:12.012Z,100916.81
2023-02-18T20:33:38.757Z,100918.47
2023-02-18T20:36:08.195Z,100919.31
2023-02-18T20:38:35.635Z,100914.47
2023-02-18T20:41:14.590Z,100911.13
2023-02-18T20:43:41.529Z,100922.50
2023-02-18T20:46:10.193Z,100912.81
2023-02-18T20:48:36.791Z,100904.13
2023-02-18T20:51:12.268Z,100902.44
2023-02-18T20:53:40.424Z,100903.78
2023-02-18T20:56:07.981Z,100891.75
2023-02-18T20:58:34.404Z,100894.59
2023-02-18T21:01:03.477Z,100892.56
2023-02-18T21:03:29.907Z,100891.75
2023-02-18T21:06:04.927Z,100893.41
2023-02-18T21:08:32.018Z,100892.56
2023-02-18T21:11:02.742Z,100899.75
2023-02-18T21:13:29.110Z,100902.59
2023-02-18T21:15:55.446Z,100885.22
2023-02-18T21:18:21.800Z,100887.72
2023-02-18T21:20:48.257Z,100891.75
2023-02-18T21:23:14.769Z,100876.88
2023-02-18T21:25:41.150Z,100879.53
2023-02-18T21:28:08.076Z,100879.03
2023-02-18T21:30:39.952Z,100873.72
2023-02-18T21:33:06.671Z,100878.69
2023-02-18T21:35:37.264Z,100879.53
2023-02-18T21:38:04.182Z,100873.72
2023-02-18T21:40:30.966Z,100870.50
2023-02-18T21:42:58.204Z,100866.50
2023-02-18T21:45:25.796Z,100866.50
2023-02-18T21:47:52.237Z,100868.84
2023-02-18T21:50:18.653Z,100865.53
2023-02-18T21:52:45.196Z,100856.81
2023-02-18T21:55:12.255Z,100860.16
2023-02-18T21:57:38.709Z,100847.13
2023-02-18T22:00:19.718Z,100846.28
2023-02-18T22:02:46.716Z,100850.81
2023-02-18T22:05:13.035Z,100841.97
2023-02-18T22:07:39.420Z,100832.94
2023-02-18T22:10:06.157Z,100833.59
2023-02-18T22:12:33.818Z,100842.63
2023-02-18T22:15:00.285Z,100838.94
2023-02-18T22:17:29.486Z,100837.59
2023-02-18T22:19:55.924Z,100834.44
2023-02-18T22:22:22.244Z,100827.41
2023-02-18T22:24:50.440Z,100831.59
2023-02-18T22:27:16.968Z,100830.75
2023-02-18T22:29:43.437Z,100823.72
2023-02-18T22:32:09.855Z,100817.38
2023-02-18T22:34:36.240Z,100814.88
2023-02-18T22:37:02.612Z,100820.56
2023-02-18T22:39:28.937Z,100819.22
2023-02-18T22:41:55.442Z,100812.03
2023-02-18T22:44:22.898Z,100813.53
2023-02-18T22:46:49.353Z,100813.72
2023-02-18T22:49:16.034Z,100805.19
2023-02-18T22:51:43.711Z,100805.50
2023-02-18T22:54:15.530Z,100821.72
2023-02-18T22:56:42.246Z,100810.88
2023-02-18T22:59:10.593Z,100806.84
2023-02-18T23:01:39.817Z,100805.50
2023-02-18T23:04:08.643Z,100796.66
2023-02-18T23:06:36.224Z,100802.84
2023-02-18T23:09:02.965Z,100793.81
2023-02-18T23:11:29.339Z,100799.84
2023-02-18T23:14:14.719Z,100788.81
2023-02-18T23:16:59.963Z,100790.31
2023-02-18T23:19:27.382Z,100788.66
2023-02-18T23:21:53.846Z,100799.53
2023-02-18T23:24:20.489Z,100792.31
2023-02-18T23:26:46.920Z,100798.19
2023-02-18T23:29:13.843Z,100793.00
2023-02-18T23:31:40.308Z,100783.66
2023-02-18T23:34:11.522Z,100798.19
2023-02-18T23:36:37.900Z,100783.97
2023-02-18T23:39:08.168Z,100795.66
2023-02-18T23:41:35.385Z,100783.13
2023-02-18T23:44:11.307Z,100788.31
2023-02-18T23:46:38.070Z,100786.13
2023-02-18T23:49:04.817Z,100778.47
2023-02-18T23:51:31.350Z,100783.63
2023-02-18T23:53:57.959Z,100782.31
2023-02-18T23:56:28.211Z,100777.47
2023-02-18T23:58:57.292Z,100767.63
